sensor_id;sensor_type;location;lat;lon;timestamp;temperature;humidity
4637;DHT22;2331;48.806;9.140;2023-06-04T00:02:10;20.10;1.00
4637;DHT22;2331;48.806;9.140;2023-06-04T00:04:37;20.00;1.00
4637;DHT22;2331;48.806;9.140;2023-06-04T00:07:04;19.90;1.00
4637;DHT22;2331;48.806;9.140;2023-06-04T00:09:32;19.90;1.00
4637;DHT22;2331;48.806;9.140;2023-06-04T00:11:59;19.90;1.00
4637;DHT22;2331;48.806;9.140;2023-06-04T00:14:26;19.80;1.00
4637;DHT22;2331;48.806;9.140;2023-06-04T00:16:52;19.80;1.00
4637;DHT22;2331;48.806;9.140;2023-06-04T00:19:19;19.80;1.00
4637;DHT22;2331;48.806;9.140;2023-06-04T00:21:46;19.80;1.00
4637;DHT22;2331;48.806;9.140;2023-06-04T00:24:13;19.70;1.00
4637;DHT22;2331;48.806;9.140;2023-06-04T00:26:41;19.70;1.00
4637;DHT22;2331;48.806;9.140;2023-06-04T00:29:07;19.60;1.00
4637;DHT22;2331;48.806;9.140;2023-06-04T00:31:34;19.60;1.00
4637;DHT22;2331;48.806;9.140;2023-06-04T00:34:01;19.50;1.00
4637;DHT22;2331;48.806;9.140;2023-06-04T00:36:28;19.50;1.00
4637;DHT22;2331;48.806;9.140;2023-06-04T00:38:54;19.50;1.00
4637;DHT22;2331;48.806;9.140;2023-06-04T00:41:21;19.40;1.00
4637;DHT22;2331;48.806;9.140;2023-06-04T00:43:49;19.50;1.00
4637;DHT22;2331;48.806;9.140;2023-06-04T00:46:21;19.30;1.00
4637;DHT22;2331;48.806;9.140;2023-06-04T00:48:48;19.40;1.00
4637;DHT22;2331;48.806;9.140;2023-06-04T00:51:15;19.40;1.00
4637;DHT22;2331;48.806;9.140;2023-06-04T00:53:42;19.30;1.00
4637;DHT22;2331;48.806;9.140;2023-06-04T00:56:09;19.20;1.00
4637;DHT22;2331;48.806;9.140;2023-06-04T00:58:37;19.10;1.00
4637;DHT22;2331;48.806;9.140;2023-06-04T01:01:09;19.10;1.00
4637;DHT22;2331;48.806;9.140;2023-06-04T01:03:38;19.10;1.00
4637;DHT22;2331;48.806;9.140;2023-06-04T01:06:14;19.00;1.00
4637;DHT22;2331;48.806;9.140;2023-06-04T01:08:46;19.00;1.00
4637;DHT22;2331;48.806;9.140;2023-06-04T01:11:14;18.90;1.00
4637;DHT22;2331;48.806;9.140;2023-06-04T01:13:41;18.90;1.00
4637;DHT22;2331;48.806;9.140;2023-06-04T01:16:10;18.90;1.00
4637;DHT22;2331;48.806;9.140;2023-06-04T01:18:39;18.90;1.00
4637;DHT22;2331;48.806;9.140;2023-06-04T01:21:08;18.80;1.00
4637;DHT22;2331;48.806;9.140;2023-06-04T01:23:40;18.80;1.00
4637;DHT22;2331;48.806;9.140;2023-06-04T01:26:10;18.80;1.00
4637;DHT22;2331;48.806;9.140;2023-06-04T01:28:38;18.70;1.00
4637;DHT22;2331;48.806;9.140;2023-06-04T01:31:06;18.70;1.00
4637;DHT22;2331;48.806;9.140;2023-06-04T01:33:35;18.70;1.00
4637;DHT22;2331;48.806;9.140;2023-06-04T01:36:02;18.70;1.00
4637;DHT22;2331;48.806;9.140;2023-06-04T01:38:29;18.60;1.00
4637;DHT22;2331;48.806;9.140;2023-06-04T01:40:56;18.50;1.00
4637;DHT22;2331;48.806;9.140;2023-06-04T01:43:27;18.40;1.00
4637;DHT22;2331;48.806;9.140;2023-06-04T01:45:54;18.40;1.00
4637;DHT22;2331;48.806;9.140;2023-06-04T01:48:22;18.50;1.00
4637;DHT22;2331;48.806;9.140;2023-06-04T01:50:50;18.50;1.00
4637;DHT22;2331;48.806;9.140;2023-06-04T01:53:16;18.40;1.00
4637;DHT22;2331;48.806;9.140;2023-06-04T01:55:43;18.40;1.00
4637;DHT22;2331;48.806;9.140;2023-06-04T01:58:10;18.40;1.00
4637;DHT22;2331;48.806;9.140;2023-06-04T02:00:36;18.40;1.00
4637;DHT22;2331;48.806;9.140;2023-06-04T02:03:03;18.30;1.00
4637;DHT22;2331;48.806;9.140;2023-06-04T02:05:30;18.20;1.00
4637;DHT22;2331;48.806;9.140;2023-06-04T02:07:58;18.10;1.00
4637;DHT22;2331;48.806;9.140;2023-06-04T02:10:27;18.10;1.00
4637;DHT22;2331;48.806;9.140;2023-06-04T02:12:55;18.10;1.00
4637;DHT22;2331;48.806;9.140;2023-06-04T02:15:23;18.10;1.00
4637;DHT22;2331;48.806;9.140;2023-06-04T02:17:50;18.10;1.00
4637;DHT22;2331;48.806;9.140;2023-06-04T02:20:17;18.00;1.00
4637;DHT22;2331;48.806;9.140;2023-06-04T02:22:44;18.00;1.00
4637;DHT22;2331;48.806;9.140;2023-06-04T02:25:12;17.90;1.00
4637;DHT22;2331;48.806;9.140;2023-06-04T02:27:38;17.90;1.00
4637;DHT22;2331;48.806;9.140;2023-06-04T02:30:06;17.90;1.00
4637;DHT22;2331;48.806;9.140;2023-06-04T02:32:33;17.80;1.00
4637;DHT22;2331;48.806;9.140;2023-06-04T02:35:02;17.80;1.00
4637;DHT22;2331;48.806;9.140;2023-06-04T02:37:28;17.80;1.00
4637;DHT22;2331;48.806;9.140;2023-06-04T02:39:55;17.70;1.00
4637;DHT22;2331;48.806;9.140;2023-06-04T02:42:23;17.70;1.00
4637;DHT22;2331;48.806;9.140;2023-06-04T02:44:50;17.70;1.00
4637;DHT22;2331;48.806;9.140;2023-06-04T02:47:17;17.60;1.00
4637;DHT22;2331;48.806;9.140;2023-06-04T02:49:45;17.50;1.00
4637;DHT22;2331;48.806;9.140;2023-06-04T02:52:12;17.40;1.00
4637;DHT22;2331;48.806;9.140;2023-06-04T02:54:38;17.50;1.00
4637;DHT22;2331;48.806;9.140;2023-06-04T02:57:06;17.40;1.00
4637;DHT22;2331;48.806;9.140;2023-06-04T02:59:35;17.40;1.00
4637;DHT22;2331;48.806;9.140;2023-06-04T03:02:03;17.40;1.00
4637;DHT22;2331;48.806;9.140;2023-06-04T03:04:30;17.30;1.00
4637;DHT22;2331;48.806;9.140;2023-06-04T03:07:00;17.30;1.00
4637;DHT22;2331;48.806;9.140;2023-06-04T03:09:27;17.30;1.00
4637;DHT22;2331;48.806;9.140;2023-06-04T03:11:54;17.30;1.00
4637;DHT22;2331;48.806;9.140;2023-06-04T03:14:21;17.20;1.00
4637;DHT22;2331;48.806;9.140;2023-06-04T03:16:50;17.20;1.00
4637;DHT22;2331;48.806;9.140;2023-06-04T03:19:17;17.20;1.00
4637;DHT22;2331;48.806;9.140;2023-06-04T03:21:44;17.20;1.00
4637;DHT22;2331;48.806;9.140;2023-06-04T03:24:12;17.20;1.00
4637;DHT22;2331;48.806;9.140;2023-06-04T03:26:38;17.10;1.00
4637;DHT22;2331;48.806;9.140;2023-06-04T03:29:06;17.10;1.00
4637;DHT22;2331;48.806;9.140;2023-06-04T03:31:32;17.00;1.00
4637;DHT22;2331;48.806;9.140;2023-06-04T03:34:00;17.00;1.00
4637;DHT22;2331;48.806;9.140;2023-06-04T03:36:29;17.00;1.00
4637;DHT22;2331;48.806;9.140;2023-06-04T03:38:57;17.00;1.00
4637;DHT22;2331;48.806;9.140;2023-06-04T03:41:23;16.90;1.00
4637;DHT22;2331;48.806;9.140;2023-06-04T03:43:51;16.90;1.00
4637;DHT22;2331;48.806;9.140;2023-06-04T03:46:18;16.90;1.00
4637;DHT22;2331;48.806;9.140;2023-06-04T03:48:45;16.90;1.00
4637;DHT22;2331;48.806;9.140;2023-06-04T03:51:13;16.90;1.00
4637;DHT22;2331;48.806;9.140;2023-06-04T03:53:39;16.90;1.00
4637;DHT22;2331;48.806;9.140;2023-06-04T03:56:07;16.90;1.00
4637;DHT22;2331;48.806;9.140;2023-06-04T03:58:35;16.80;1.00
4637;DHT22;2331;48.806;9.140;2023-06-04T04:01:01;16.80;1.00
4637;DHT22;2331;48.806;9.140;2023-06-04T04:03:30;16.80;1.00
4637;DHT22;2331;48.806;9.140;2023-06-04T04:05:57;16.80;1.00
4637;DHT22;2331;48.806;9.140;2023-06-04T04:08:25;16.80;1.00
4637;DHT22;2331;48.806;9.140;2023-06-04T04:10:56;16.80;1.00
4637;DHT22;2331;48.806;9.140;2023-06-04T04:13:23;16.90;1.00
4637;DHT22;2331;48.806;9.140;2023-06-04T04:15:50;16.90;1.00
4637;DHT22;2331;48.806;9.140;2023-06-04T04:18:17;16.80;1.00
4637;DHT22;2331;48.806;9.140;2023-06-04T04:20:45;16.80;1.00
4637;DHT22;2331;48.806;9.140;2023-06-04T04:23:12;16.90;1.00
4637;DHT22;2331;48.806;9.140;2023-06-04T04:25:40;16.80;1.00
4637;DHT22;2331;48.806;9.140;2023-06-04T04:28:09;16.80;1.00
4637;DHT22;2331;48.806;9.140;2023-06-04T04:30:36;16.80;1.00
4637;DHT22;2331;48.806;9.140;2023-06-04T04:33:03;16.80;1.00
4637;DHT22;2331;48.806;9.140;2023-06-04T04:35:30;16.80;1.00
4637;DHT22;2331;48.806;9.140;2023-06-04T04:37:58;16.80;1.00
4637;DHT22;2331;48.806;9.140;2023-06-04T04:40:25;16.90;1.00
4637;DHT22;2331;48.806;9.140;2023-06-04T04:42:53;16.90;1.00
4637;DHT22;2331;48.806;9.140;2023-06-04T04:45:19;16.90;1.00
4637;DHT22;2331;48.806;9.140;2023-06-04T04:47:46;16.90;1.00
4637;DHT22;2331;48.806;9.140;2023-06-04T04:50:13;17.00;1.00
4637;DHT22;2331;48.806;9.140;2023-06-04T04:52:40;17.00;1.00
4637;DHT22;2331;48.806;9.140;2023-06-04T04:55:07;17.00;1.00
4637;DHT22;2331;48.806;9.140;2023-06-04T04:57:34;17.00;1.00
4637;DHT22;2331;48.806;9.140;2023-06-04T05:00:02;17.00;1.00
4637;DHT22;2331;48.806;9.140;2023-06-04T05:02:30;17.00;1.00
4637;DHT22;2331;48.806;9.140;2023-06-04T05:04:57;17.10;1.00
4637;DHT22;2331;48.806;9.140;2023-06-04T05:07:23;17.10;1.00
4637;DHT22;2331;48.806;9.140;2023-06-04T05:09:50;17.20;1.00
4637;DHT22;2331;48.806;9.140;2023-06-04T05:12:17;17.10;1.00
4637;DHT22;2331;48.806;9.140;2023-06-04T05:14:44;17.20;1.00
4637;DHT22;2331;48.806;9.140;2023-06-04T05:17:12;17.30;1.00
4637;DHT22;2331;48.806;9.140;2023-06-04T05:19:41;17.20;1.00
4637;DHT22;2331;48.806;9.140;2023-06-04T05:22:08;17.30;1.00
4637;DHT22;2331;48.806;9.140;2023-06-04T05:24:35;17.30;1.00
4637;DHT22;2331;48.806;9.140;2023-06-04T05:27:01;17.30;1.00
4637;DHT22;2331;48.806;9.140;2023-06-04T05:29:29;17.30;1.00
4637;DHT22;2331;48.806;9.140;2023-06-04T05:31:56;17.30;1.00
4637;DHT22;2331;48.806;9.140;2023-06-04T05:34:24;17.30;1.00
4637;DHT22;2331;48.806;9.140;2023-06-04T05:36:52;17.30;1.00
4637;DHT22;2331;48.806;9.140;2023-06-04T05:39:19;17.30;1.00
4637;DHT22;2331;48.806;9.140;2023-06-04T05:41:49;17.30;1.00
4637;DHT22;2331;48.806;9.140;2023-06-04T05:44:16;17.40;1.00
4637;DHT22;2331;48.806;9.140;2023-06-04T05:46:42;17.40;1.00
4637;DHT22;2331;48.806;9.140;2023-06-04T05:49:09;17.40;1.00
4637;DHT22;2331;48.806;9.140;2023-06-04T05:51:37;17.40;1.00
4637;DHT22;2331;48.806;9.140;2023-06-04T05:54:04;17.40;1.00
4637;DHT22;2331;48.806;9.140;2023-06-04T05:56:30;17.50;1.00
4637;DHT22;2331;48.806;9.140;2023-06-04T05:58:57;17.50;1.00
4637;DHT22;2331;48.806;9.140;2023-06-04T06:01:24;17.60;1.00
4637;DHT22;2331;48.806;9.140;2023-06-04T06:03:50;17.60;1.00
4637;DHT22;2331;48.806;9.140;2023-06-04T06:06:17;17.60;1.00
4637;DHT22;2331;48.806;9.140;2023-06-04T06:08:47;17.60;1.00
4637;DHT22;2331;48.806;9.140;2023-06-04T06:11:15;17.60;1.00
4637;DHT22;2331;48.806;9.140;2023-06-04T06:13:41;17.70;1.00
4637;DHT22;2331;48.806;9.140;2023-06-04T06:16:08;17.70;1.00
4637;DHT22;2331;48.806;9.140;2023-06-04T06:18:35;17.80;1.00
4637;DHT22;2331;48.806;9.140;2023-06-04T06:21:01;17.90;1.00
4637;DHT22;2331;48.806;9.140;2023-06-04T06:23:28;17.90;1.00
4637;DHT22;2331;48.806;9.140;2023-06-04T06:25:56;18.00;1.00
4637;DHT22;2331;48.806;9.140;2023-06-04T06:28:26;18.00;1.00
4637;DHT22;2331;48.806;9.140;2023-06-04T06:30:53;18.10;1.00
4637;DHT22;2331;48.806;9.140;2023-06-04T06:33:20;18.20;1.00
4637;DHT22;2331;48.806;9.140;2023-06-04T06:35:49;18.20;1.00
4637;DHT22;2331;48.806;9.140;2023-06-04T06:38:16;18.20;1.00
4637;DHT22;2331;48.806;9.140;2023-06-04T06:40:42;18.30;1.00
4637;DHT22;2331;48.806;9.140;2023-06-04T06:43:10;18.40;1.00
4637;DHT22;2331;48.806;9.140;2023-06-04T06:45:37;18.50;1.00
4637;DHT22;2331;48.806;9.140;2023-06-04T06:48:04;18.60;1.00
4637;DHT22;2331;48.806;9.140;2023-06-04T06:50:31;18.60;1.00
4637;DHT22;2331;48.806;9.140;2023-06-04T06:52:58;18.70;1.00
4637;DHT22;2331;48.806;9.140;2023-06-04T06:55:25;18.70;1.00
4637;DHT22;2331;48.806;9.140;2023-06-04T06:57:52;18.80;1.00
4637;DHT22;2331;48.806;9.140;2023-06-04T07:00:20;18.80;1.00
4637;DHT22;2331;48.806;9.140;2023-06-04T07:02:47;18.90;1.00
4637;DHT22;2331;48.806;9.140;2023-06-04T07:05:14;18.90;1.00
4637;DHT22;2331;48.806;9.140;2023-06-04T07:07:42;19.00;1.00
4637;DHT22;2331;48.806;9.140;2023-06-04T07:10:09;19.10;1.00
4637;DHT22;2331;48.806;9.140;2023-06-04T07:12:36;19.10;1.00
4637;DHT22;2331;48.806;9.140;2023-06-04T07:15:05;19.10;1.00
4637;DHT22;2331;48.806;9.140;2023-06-04T07:17:33;19.20;1.00
4637;DHT22;2331;48.806;9.140;2023-06-04T07:20:00;19.30;1.00
4637;DHT22;2331;48.806;9.140;2023-06-04T07:22:26;19.30;1.00
4637;DHT22;2331;48.806;9.140;2023-06-04T07:24:53;19.40;1.00
4637;DHT22;2331;48.806;9.140;2023-06-04T07:27:20;19.50;1.00
4637;DHT22;2331;48.806;9.140;2023-06-04T07:29:47;19.60;1.00
4637;DHT22;2331;48.806;9.140;2023-06-04T07:32:14;19.60;1.00
4637;DHT22;2331;48.806;9.140;2023-06-04T07:34:42;19.70;1.00
4637;DHT22;2331;48.806;9.140;2023-06-04T07:37:09;19.80;1.00
4637;DHT22;2331;48.806;9.140;2023-06-04T07:39:36;19.80;1.00
4637;DHT22;2331;48.806;9.140;2023-06-04T07:42:04;19.80;1.00
4637;DHT22;2331;48.806;9.140;2023-06-04T07:44:31;19.90;1.00
4637;DHT22;2331;48.806;9.140;2023-06-04T07:46:58;20.00;1.00
4637;DHT22;2331;48.806;9.140;2023-06-04T07:49:24;20.00;1.00
4637;DHT22;2331;48.806;9.140;2023-06-04T07:51:53;20.10;1.00
4637;DHT22;2331;48.806;9.140;2023-06-04T07:54:20;20.10;1.00
4637;DHT22;2331;48.806;9.140;2023-06-04T07:56:47;20.20;1.00
4637;DHT22;2331;48.806;9.140;2023-06-04T07:59:14;20.30;1.00
4637;DHT22;2331;48.806;9.140;2023-06-04T08:01:40;20.40;1.00
4637;DHT22;2331;48.806;9.140;2023-06-04T08:04:07;20.50;1.00
4637;DHT22;2331;48.806;9.140;2023-06-04T08:06:34;20.50;1.00
4637;DHT22;2331;48.806;9.140;2023-06-04T08:09:02;20.50;1.00
4637;DHT22;2331;48.806;9.140;2023-06-04T08:11:29;20.70;1.00
4637;DHT22;2331;48.806;9.140;2023-06-04T08:13:55;20.70;1.00
4637;DHT22;2331;48.806;9.140;2023-06-04T08:16:22;20.80;1.00
4637;DHT22;2331;48.806;9.140;2023-06-04T08:18:49;20.80;1.00
4637;DHT22;2331;48.806;9.140;2023-06-04T08:21:25;21.00;1.00
4637;DHT22;2331;48.806;9.140;2023-06-04T08:23:52;21.00;1.00
4637;DHT22;2331;48.806;9.140;2023-06-04T08:26:20;21.10;1.00
4637;DHT22;2331;48.806;9.140;2023-06-04T08:28:48;21.30;1.00
4637;DHT22;2331;48.806;9.140;2023-06-04T08:31:15;21.40;1.00
4637;DHT22;2331;48.806;9.140;2023-06-04T08:33:42;21.50;1.00
4637;DHT22;2331;48.806;9.140;2023-06-04T08:36:09;21.60;1.00
4637;DHT22;2331;48.806;9.140;2023-06-04T08:38:36;21.60;1.00
4637;DHT22;2331;48.806;9.140;2023-06-04T08:41:10;21.70;1.00
4637;DHT22;2331;48.806;9.140;2023-06-04T08:43:40;21.80;1.00
4637;DHT22;2331;48.806;9.140;2023-06-04T08:46:09;21.90;1.00
4637;DHT22;2331;48.806;9.140;2023-06-04T08:48:37;22.00;1.00
4637;DHT22;2331;48.806;9.140;2023-06-04T08:51:06;22.10;1.00
4637;DHT22;2331;48.806;9.140;2023-06-04T08:53:34;22.10;1.00
4637;DHT22;2331;48.806;9.140;2023-06-04T08:56:01;22.20;1.00
4637;DHT22;2331;48.806;9.140;2023-06-04T08:58:30;22.30;1.00
4637;DHT22;2331;48.806;9.140;2023-06-04T09:00:59;22.40;1.00
4637;DHT22;2331;48.806;9.140;2023-06-04T09:03:27;22.50;1.00
4637;DHT22;2331;48.806;9.140;2023-06-04T09:05:55;22.70;1.00
4637;DHT22;2331;48.806;9.140;2023-06-04T09:08:24;22.80;1.00
4637;DHT22;2331;48.806;9.140;2023-06-04T09:10:53;22.90;1.00
4637;DHT22;2331;48.806;9.140;2023-06-04T09:13:22;23.00;1.00
4637;DHT22;2331;48.806;9.140;2023-06-04T09:15:59;23.00;1.00
4637;DHT22;2331;48.806;9.140;2023-06-04T09:18:26;23.10;1.00
4637;DHT22;2331;48.806;9.140;2023-06-04T09:21:01;23.30;1.00
4637;DHT22;2331;48.806;9.140;2023-06-04T09:23:28;23.30;1.00
4637;DHT22;2331;48.806;9.140;2023-06-04T09:25:55;23.40;1.00
4637;DHT22;2331;48.806;9.140;2023-06-04T09:28:22;23.40;1.00
4637;DHT22;2331;48.806;9.140;2023-06-04T09:30:52;23.50;1.00
4637;DHT22;2331;48.806;9.140;2023-06-04T09:33:20;23.70;1.00
4637;DHT22;2331;48.806;9.140;2023-06-04T09:35:53;23.80;1.00
4637;DHT22;2331;48.806;9.140;2023-06-04T09:38:20;23.80;1.00
4637;DHT22;2331;48.806;9.140;2023-06-04T09:40:47;23.90;1.00
4637;DHT22;2331;48.806;9.140;2023-06-04T09:43:21;23.90;1.00
4637;DHT22;2331;48.806;9.140;2023-06-04T09:45:49;24.00;1.00
4637;DHT22;2331;48.806;9.140;2023-06-04T09:48:20;24.10;1.00
4637;DHT22;2331;48.806;9.140;2023-06-04T09:50:48;24.10;1.00
4637;DHT22;2331;48.806;9.140;2023-06-04T09:53:15;24.20;1.00
4637;DHT22;2331;48.806;9.140;2023-06-04T09:55:42;24.30;1.00
4637;DHT22;2331;48.806;9.140;2023-06-04T09:58:10;24.50;1.00
4637;DHT22;2331;48.806;9.140;2023-06-04T10:00:38;24.50;1.00
4637;DHT22;2331;48.806;9.140;2023-06-04T10:03:05;24.50;1.00
4637;DHT22;2331;48.806;9.140;2023-06-04T10:05:35;24.70;1.00
4637;DHT22;2331;48.806;9.140;2023-06-04T10:08:03;24.70;1.00
4637;DHT22;2331;48.806;9.140;2023-06-04T10:10:34;24.70;1.00
4637;DHT22;2331;48.806;9.140;2023-06-04T10:13:17;24.70;1.00
4637;DHT22;2331;48.806;9.140;2023-06-04T10:15:44;24.90;1.00
4637;DHT22;2331;48.806;9.140;2023-06-04T10:18:12;24.90;1.00
4637;DHT22;2331;48.806;9.140;2023-06-04T10:20:42;25.10;1.00
4637;DHT22;2331;48.806;9.140;2023-06-04T10:23:08;25.10;1.00
4637;DHT22;2331;48.806;9.140;2023-06-04T10:25:35;25.20;1.00
4637;DHT22;2331;48.806;9.140;2023-06-04T10:28:03;25.20;1.00
4637;DHT22;2331;48.806;9.140;2023-06-04T10:30:30;25.30;1.00
4637;DHT22;2331;48.806;9.140;2023-06-04T10:32:57;25.30;1.00
4637;DHT22;2331;48.806;9.140;2023-06-04T10:35:31;25.40;1.00
4637;DHT22;2331;48.806;9.140;2023-06-04T10:38:07;25.50;1.00
4637;DHT22;2331;48.806;9.140;2023-06-04T10:40:34;25.60;1.00
4637;DHT22;2331;48.806;9.140;2023-06-04T10:43:05;25.70;1.00
4637;DHT22;2331;48.806;9.140;2023-06-04T10:45:32;25.70;1.00
4637;DHT22;2331;48.806;9.140;2023-06-04T10:48:03;25.80;1.00
4637;DHT22;2331;48.806;9.140;2023-06-04T10:50:31;25.80;1.00
4637;DHT22;2331;48.806;9.140;2023-06-04T10:52:58;25.90;1.00
4637;DHT22;2331;48.806;9.140;2023-06-04T10:55:31;25.90;1.00
4637;DHT22;2331;48.806;9.140;2023-06-04T10:58:00;26.00;1.00
4637;DHT22;2331;48.806;9.140;2023-06-04T11:00:35;26.00;1.00
4637;DHT22;2331;48.806;9.140;2023-06-04T11:03:02;26.10;1.00
4637;DHT22;2331;48.806;9.140;2023-06-04T11:05:36;26.20;1.00
4637;DHT22;2331;48.806;9.140;2023-06-04T11:08:04;26.20;1.00
4637;DHT22;2331;48.806;9.140;2023-06-04T11:10:34;26.30;1.00
4637;DHT22;2331;48.806;9.140;2023-06-04T11:13:02;26.30;1.00
4637;DHT22;2331;48.806;9.140;2023-06-04T11:15:38;26.40;1.00
4637;DHT22;2331;48.806;9.140;2023-06-04T11:18:05;26.30;1.00
4637;DHT22;2331;48.806;9.140;2023-06-04T11:20:32;26.40;1.00
4637;DHT22;2331;48.806;9.140;2023-06-04T11:22:59;26.50;1.00
4637;DHT22;2331;48.806;9.140;2023-06-04T11:25:29;26.60;1.00
4637;DHT22;2331;48.806;9.140;2023-06-04T11:28:00;26.60;1.00
4637;DHT22;2331;48.806;9.140;2023-06-04T11:30:27;26.70;1.00
4637;DHT22;2331;48.806;9.140;2023-06-04T11:33:01;26.80;1.00
4637;DHT22;2331;48.806;9.140;2023-06-04T11:35:27;26.80;1.00
4637;DHT22;2331;48.806;9.140;2023-06-04T11:37:55;26.90;1.00
4637;DHT22;2331;48.806;9.140;2023-06-04T11:40:22;26.90;1.00
4637;DHT22;2331;48.806;9.140;2023-06-04T11:42:50;26.90;1.00
4637;DHT22;2331;48.806;9.140;2023-06-04T11:45:19;26.90;1.00
4637;DHT22;2331;48.806;9.140;2023-06-04T11:47:47;26.90;1.00
4637;DHT22;2331;48.806;9.140;2023-06-04T11:50:14;27.00;1.00
4637;DHT22;2331;48.806;9.140;2023-06-04T11:52:41;27.00;1.00
4637;DHT22;2331;48.806;9.140;2023-06-04T11:55:09;27.10;1.00
4637;DHT22;2331;48.806;9.140;2023-06-04T11:57:37;27.20;1.00
4637;DHT22;2331;48.806;9.140;2023-06-04T12:00:05;27.20;1.00
4637;DHT22;2331;48.806;9.140;2023-06-04T12:02:36;27.20;1.00
4637;DHT22;2331;48.806;9.140;2023-06-04T12:05:13;27.30;1.00
4637;DHT22;2331;48.806;9.140;2023-06-04T12:07:40;27.30;1.00
4637;DHT22;2331;48.806;9.140;2023-06-04T12:10:07;27.30;1.00
4637;DHT22;2331;48.806;9.140;2023-06-04T12:12:34;27.40;1.00
4637;DHT22;2331;48.806;9.140;2023-06-04T12:15:01;27.50;1.00
4637;DHT22;2331;48.806;9.140;2023-06-04T12:17:30;27.50;1.00
4637;DHT22;2331;48.806;9.140;2023-06-04T12:19:59;27.70;1.00
4637;DHT22;2331;48.806;9.140;2023-06-04T12:22:26;27.70;1.00
4637;DHT22;2331;48.806;9.140;2023-06-04T12:24:53;27.70;1.00
4637;DHT22;2331;48.806;9.140;2023-06-04T12:27:22;27.60;1.00
4637;DHT22;2331;48.806;9.140;2023-06-04T12:29:56;27.70;1.00
4637;DHT22;2331;48.806;9.140;2023-06-04T12:32:23;27.70;1.00
4637;DHT22;2331;48.806;9.140;2023-06-04T12:34:50;27.80;1.00
4637;DHT22;2331;48.806;9.140;2023-06-04T12:37:19;27.80;1.00
4637;DHT22;2331;48.806;9.140;2023-06-04T12:39:46;27.80;1.00
4637;DHT22;2331;48.806;9.140;2023-06-04T12:42:13;27.80;1.00
4637;DHT22;2331;48.806;9.140;2023-06-04T12:44:41;27.90;1.00
4637;DHT22;2331;48.806;9.140;2023-06-04T12:47:08;28.00;1.00
4637;DHT22;2331;48.806;9.140;2023-06-04T12:49:34;28.00;1.00
4637;DHT22;2331;48.806;9.140;2023-06-04T12:52:01;28.10;1.00
4637;DHT22;2331;48.806;9.140;2023-06-04T12:54:30;28.10;1.00
4637;DHT22;2331;48.806;9.140;2023-06-04T12:56:58;28.20;1.00
4637;DHT22;2331;48.806;9.140;2023-06-04T12:59:25;28.20;1.00
4637;DHT22;2331;48.806;9.140;2023-06-04T13:01:52;28.20;1.00
4637;DHT22;2331;48.806;9.140;2023-06-04T13:04:19;28.20;1.00
4637;DHT22;2331;48.806;9.140;2023-06-04T13:06:46;28.20;1.00
4637;DHT22;2331;48.806;9.140;2023-06-04T13:09:13;28.20;1.00
4637;DHT22;2331;48.806;9.140;2023-06-04T13:11:42;28.30;1.00
4637;DHT22;2331;48.806;9.140;2023-06-04T13:14:10;28.40;1.00
4637;DHT22;2331;48.806;9.140;2023-06-04T13:16:38;28.50;1.00
4637;DHT22;2331;48.806;9.140;2023-06-04T13:19:05;28.50;1.00
4637;DHT22;2331;48.806;9.140;2023-06-04T13:21:32;28.50;1.00
4637;DHT22;2331;48.806;9.140;2023-06-04T13:23:59;28.60;1.00
4637;DHT22;2331;48.806;9.140;2023-06-04T13:26:26;28.70;1.00
4637;DHT22;2331;48.806;9.140;2023-06-04T13:28:54;28.70;1.00
4637;DHT22;2331;48.806;9.140;2023-06-04T13:31:21;28.80;1.00
4637;DHT22;2331;48.806;9.140;2023-06-04T13:33:47;28.90;1.00
4637;DHT22;2331;48.806;9.140;2023-06-04T13:36:14;28.80;1.00
4637;DHT22;2331;48.806;9.140;2023-06-04T13:38:41;28.80;1.00
4637;DHT22;2331;48.806;9.140;2023-06-04T13:41:08;28.80;1.00
4637;DHT22;2331;48.806;9.140;2023-06-04T13:43:35;28.90;1.00
4637;DHT22;2331;48.806;9.140;2023-06-04T13:46:03;28.90;1.00
4637;DHT22;2331;48.806;9.140;2023-06-04T13:48:30;29.00;1.00
4637;DHT22;2331;48.806;9.140;2023-06-04T13:50:57;29.00;1.00
4637;DHT22;2331;48.806;9.140;2023-06-04T13:53:24;29.00;1.00
4637;DHT22;2331;48.806;9.140;2023-06-04T13:55:51;29.00;1.00
4637;DHT22;2331;48.806;9.140;2023-06-04T13:58:23;29.00;1.00
4637;DHT22;2331;48.806;9.140;2023-06-04T14:00:50;28.90;1.00
4637;DHT22;2331;48.806;9.140;2023-06-04T14:03:18;28.90;1.00
4637;DHT22;2331;48.806;9.140;2023-06-04T14:05:45;28.90;1.00
4637;DHT22;2331;48.806;9.140;2023-06-04T14:08:12;29.00;1.00
4637;DHT22;2331;48.806;9.140;2023-06-04T14:10:39;29.00;1.00
4637;DHT22;2331;48.806;9.140;2023-06-04T14:13:08;29.00;1.00
4637;DHT22;2331;48.806;9.140;2023-06-04T14:15:35;29.00;1.00
4637;DHT22;2331;48.806;9.140;2023-06-04T14:18:02;28.90;1.00
4637;DHT22;2331;48.806;9.140;2023-06-04T14:20:30;29.00;1.00
4637;DHT22;2331;48.806;9.140;2023-06-04T14:22:57;28.90;1.00
4637;DHT22;2331;48.806;9.140;2023-06-04T14:25:25;29.00;1.00
4637;DHT22;2331;48.806;9.140;2023-06-04T14:27:52;29.00;1.00
4637;DHT22;2331;48.806;9.140;2023-06-04T14:30:18;29.10;1.00
4637;DHT22;2331;48.806;9.140;2023-06-04T14:32:45;29.20;1.00
4637;DHT22;2331;48.806;9.140;2023-06-04T14:35:12;29.20;1.00
4637;DHT22;2331;48.806;9.140;2023-06-04T14:37:40;29.20;1.00
4637;DHT22;2331;48.806;9.140;2023-06-04T14:40:07;29.20;1.00
4637;DHT22;2331;48.806;9.140;2023-06-04T14:42:35;29.20;1.00
4637;DHT22;2331;48.806;9.140;2023-06-04T14:45:02;29.20;1.00
4637;DHT22;2331;48.806;9.140;2023-06-04T14:47:29;29.20;1.00
4637;DHT22;2331;48.806;9.140;2023-06-04T14:49:55;29.20;1.00
4637;DHT22;2331;48.806;9.140;2023-06-04T14:52:22;29.10;1.00
4637;DHT22;2331;48.806;9.140;2023-06-04T14:54:50;29.20;1.00
4637;DHT22;2331;48.806;9.140;2023-06-04T14:57:17;29.10;1.00
4637;DHT22;2331;48.806;9.140;2023-06-04T14:59:44;29.10;1.00
4637;DHT22;2331;48.806;9.140;2023-06-04T15:02:11;29.20;1.00
4637;DHT22;2331;48.806;9.140;2023-06-04T15:04:38;29.20;1.00
4637;DHT22;2331;48.806;9.140;2023-06-04T15:07:09;29.10;1.00
4637;DHT22;2331;48.806;9.140;2023-06-04T15:09:36;29.10;1.00
4637;DHT22;2331;48.806;9.140;2023-06-04T15:12:04;29.00;1.00
4637;DHT22;2331;48.806;9.140;2023-06-04T15:14:31;29.10;1.00
4637;DHT22;2331;48.806;9.140;2023-06-04T15:16:58;29.20;1.00
4637;DHT22;2331;48.806;9.140;2023-06-04T15:19:24;29.20;1.00
4637;DHT22;2331;48.806;9.140;2023-06-04T15:21:51;29.10;1.00
4637;DHT22;2331;48.806;9.140;2023-06-04T15:24:18;29.10;1.00
4637;DHT22;2331;48.806;9.140;2023-06-04T15:30:09;29.10;1.00
4637;DHT22;2331;48.806;9.140;2023-06-04T15:32:36;29.20;1.00
4637;DHT22;2331;48.806;9.140;2023-06-04T15:35:04;29.20;1.00
4637;DHT22;2331;48.806;9.140;2023-06-04T15:37:31;29.20;1.00
4637;DHT22;2331;48.806;9.140;2023-06-04T15:39:58;29.30;1.00
4637;DHT22;2331;48.806;9.140;2023-06-04T15:42:26;29.30;1.00
4637;DHT22;2331;48.806;9.140;2023-06-04T15:44:53;29.40;1.00
4637;DHT22;2331;48.806;9.140;2023-06-04T15:47:22;29.40;1.00
4637;DHT22;2331;48.806;9.140;2023-06-04T15:49:49;29.40;1.00
4637;DHT22;2331;48.806;9.140;2023-06-04T15:52:16;29.30;1.00
4637;DHT22;2331;48.806;9.140;2023-06-04T15:54:45;29.40;1.00
4637;DHT22;2331;48.806;9.140;2023-06-04T15:57:12;29.30;1.00
4637;DHT22;2331;48.806;9.140;2023-06-04T15:59:40;29.30;1.00
4637;DHT22;2331;48.806;9.140;2023-06-04T16:02:07;29.30;1.00
4637;DHT22;2331;48.806;9.140;2023-06-04T16:04:35;29.30;1.00
4637;DHT22;2331;48.806;9.140;2023-06-04T16:07:02;29.40;1.00
4637;DHT22;2331;48.806;9.140;2023-06-04T16:09:30;29.30;1.00
4637;DHT22;2331;48.806;9.140;2023-06-04T16:11:56;29.20;1.00
4637;DHT22;2331;48.806;9.140;2023-06-04T16:14:23;29.30;1.00
4637;DHT22;2331;48.806;9.140;2023-06-04T16:16:50;29.30;1.00
4637;DHT22;2331;48.806;9.140;2023-06-04T16:19:18;29.40;1.00
4637;DHT22;2331;48.806;9.140;2023-06-04T16:21:46;29.40;1.00
4637;DHT22;2331;48.806;9.140;2023-06-04T16:24:12;29.40;1.00